Time;durP1;ratioP1;P1;durP2;ratioP2;P2;SDS_P1;SDS_P2;PMS_P1;PMS_P2;Temp;Humidity;BMP_temperature;BMP_pressure;BME280_temperature;BME280_humidity;BME280_pressure;Samples;Min_cycle;Max_cycle;Signal;HPM_P1;HPM_P2
2022/04/06 00:00:43;;;;;;;2.75;1.80;;;;;;;;;;5054063;28;20020;-84
2022/04/06 00:03:08;;;;;;;2.53;1.80;;;;;;;;;;5071330;28;20024;-87
2022/04/06 00:05:34;;;;;;;3.08;1.70;;;;;;;;;;5071421;28;20031;-85
2022/04/06 00:08:00;;;;;;;4.28;1.75;;;;;;;;;;5053671;28;20369;-85
2022/04/06 00:10:27;;;;;;;2.60;1.50;;;;;;;;;;5053008;28;20058;-86
2022/04/06 00:12:52;;;;;;;3.45;2.03;;;;;;;;;;5071469;28;20024;-85
2022/04/06 00:15:18;;;;;;;3.55;1.83;;;;;;;;;;5071713;28;20032;-87
2022/04/06 00:17:43;;;;;;;3.20;1.77;;;;;;;;;;5049600;28;20610;-85
2022/04/06 00:20:09;;;;;;;3.33;1.65;;;;;;;;;;5071057;28;20024;-86
2022/04/06 00:22:35;;;;;;;2.47;1.40;;;;;;;;;;5071153;28;20032;-88
2022/04/06 00:25:00;;;;;;;2.78;1.60;;;;;;;;;;5071510;28;20024;-86
2022/04/06 00:27:26;;;;;;;1.77;1.50;;;;;;;;;;5073998;28;20112;-86
2022/04/06 00:29:52;;;;;;;3.42;1.75;;;;;;;;;;5075450;28;20380;-82
2022/04/06 00:32:18;;;;;;;2.10;1.60;;;;;;;;;;5057097;28;20043;-86
2022/04/06 00:37:28;;;;;;;2.80;1.40;;;;;;;;;;5075416;28;20032;-86
2022/04/06 00:39:53;;;;;;;3.75;1.98;;;;;;;;;;5057234;28;20380;-87
2022/04/06 00:42:19;;;;;;;3.38;1.42;;;;;;;;;;5056884;28;20025;-84
2022/04/06 00:44:45;;;;;;;2.95;1.60;;;;;;;;;;5075113;28;20421;-85
2022/04/06 00:47:10;;;;;;;2.83;1.85;;;;;;;;;;5074823;28;20025;-86
2022/04/06 00:49:36;;;;;;;4.47;2.17;;;;;;;;;;5056357;28;20103;-85
2022/04/06 00:52:05;;;;;;;2.88;1.77;;;;;;;;;;5056410;28;20363;-86
2022/04/06 00:54:32;;;;;;;4.10;1.50;;;;;;;;;;5074479;28;20031;-86
2022/04/06 00:56:59;;;;;;;2.30;1.50;;;;;;;;;;5074082;28;20028;-87
2022/04/06 00:59:28;;;;;;;3.00;1.90;;;;;;;;;;5055809;28;20048;-84
2022/04/06 01:01:57;;;;;;;3.08;1.83;;;;;;;;;;5074210;28;20388;-87
2022/04/06 01:04:22;;;;;;;2.70;1.70;;;;;;;;;;5055961;28;20135;-84
2022/04/06 01:06:48;;;;;;;4.80;1.90;;;;;;;;;;5056329;28;20111;-84
2022/04/06 01:09:18;;;;;;;3.72;1.90;;;;;;;;;;5074086;28;20036;-87
2022/04/06 01:11:45;;;;;;;2.65;1.63;;;;;;;;;;5054547;28;20044;-88
2022/04/06 01:14:12;;;;;;;2.50;1.60;;;;;;;;;;5056023;28;20395;-86
2022/04/06 01:16:38;;;;;;;4.43;2.38;;;;;;;;;;5055786;28;20444;-85
2022/04/06 01:19:04;;;;;;;3.00;1.92;;;;;;;;;;5073210;28;20043;-84
2022/04/06 01:21:30;;;;;;;5.13;1.92;;;;;;;;;;5073815;28;20104;-86
2022/04/06 01:23:56;;;;;;;3.40;1.80;;;;;;;;;;5073676;28;20028;-86
2022/04/06 01:26:22;;;;;;;3.95;2.00;;;;;;;;;;5074177;28;20120;-85
2022/04/06 01:28:47;;;;;;;3.70;1.90;;;;;;;;;;5055805;28;20115;-86
2022/04/06 01:31:13;;;;;;;3.30;1.70;;;;;;;;;;5073504;28;20036;-85
2022/04/06 01:33:39;;;;;;;3.75;2.03;;;;;;;;;;5073830;28;20384;-85
2022/04/06 01:36:04;;;;;;;3.50;1.77;;;;;;;;;;5055206;28;20092;-83
2022/04/06 01:38:30;;;;;;;5.28;2.00;;;;;;;;;;5054267;28;20055;-84
2022/04/06 01:40:56;;;;;;;3.75;2.22;;;;;;;;;;5055837;28;20070;-85
2022/04/06 01:43:22;;;;;;;3.22;2.03;;;;;;;;;;5055551;28;20471;-86
2022/04/06 01:45:47;;;;;;;5.22;2.28;;;;;;;;;;5055818;28;20024;-84
2022/04/06 01:48:16;;;;;;;3.13;1.98;;;;;;;;;;5055652;28;20032;-84
2022/04/06 01:53:28;;;;;;;4.20;1.98;;;;;;;;;;5071119;28;20075;-84
2022/04/06 01:55:55;;;;;;;3.17;1.90;;;;;;;;;;5055974;28;20506;-85
2022/04/06 01:58:20;;;;;;;3.17;2.08;;;;;;;;;;5055506;28;20036;-87
2022/04/06 02:00:47;;;;;;;2.97;2.00;;;;;;;;;;5055023;28;20507;-86
2022/04/06 02:03:13;;;;;;;2.90;2.03;;;;;;;;;;5072618;28;20080;-84
2022/04/06 02:05:38;;;;;;;3.63;2.42;;;;;;;;;;5055253;28;20111;-86
2022/04/06 02:08:04;;;;;;;3.30;2.05;;;;;;;;;;5055054;28;20055;-84
2022/04/06 02:10:30;;;;;;;3.47;1.77;;;;;;;;;;5054968;28;20068;-84
2022/04/06 02:12:57;;;;;;;3.95;1.65;;;;;;;;;;5054934;28;20028;-83
2022/04/06 02:15:23;;;;;;;4.53;2.35;;;;;;;;;;5072620;28;20036;-84
2022/04/06 02:17:49;;;;;;;2.63;2.00;;;;;;;;;;5073126;28;20846;-85
2022/04/06 02:20:15;;;;;;;3.60;2.13;;;;;;;;;;5054869;28;20099;-87
2022/04/06 02:22:41;;;;;;;3.85;2.42;;;;;;;;;;5054673;28;20107;-86
2022/04/06 02:25:08;;;;;;;3.00;2.15;;;;;;;;;;5054863;28;20075;-85
2022/04/06 02:27:33;;;;;;;5.78;2.33;;;;;;;;;;5054933;28;20116;-87
2022/04/06 02:29:59;;;;;;;4.63;2.33;;;;;;;;;;5072367;28;20103;-88
2022/04/06 02:32:24;;;;;;;3.00;2.10;;;;;;;;;;5072972;28;20035;-85
2022/04/06 02:34:50;;;;;;;2.80;2.10;;;;;;;;;;5072537;28;20028;-87
2022/04/06 02:37:15;;;;;;;3.33;2.10;;;;;;;;;;5054241;28;20033;-85
2022/04/06 02:39:41;;;;;;;3.55;2.35;;;;;;;;;;5054377;28;20023;-85
2022/04/06 02:42:07;;;;;;;3.35;2.03;;;;;;;;;;5072149;28;20027;-85
2022/04/06 02:44:33;;;;;;;4.68;2.55;;;;;;;;;;5071790;28;20081;-84
2022/04/06 02:46:59;;;;;;;4.63;2.90;;;;;;;;;;5072374;28;20114;-85
2022/04/06 02:49:25;;;;;;;5.20;2.65;;;;;;;;;;5054375;28;20068;-83
2022/04/06 02:51:51;;;;;;;4.70;3.10;;;;;;;;;;5072868;28;20031;-84
2022/04/06 02:54:17;;;;;;;7.75;2.33;;;;;;;;;;5053775;28;20032;-84
2022/04/06 02:56:42;;;;;;;3.55;2.20;;;;;;;;;;5054160;28;20083;-85
2022/04/06 02:59:08;;;;;;;3.70;2.33;;;;;;;;;;5071923;28;20078;-82
2022/04/06 03:01:34;;;;;;;3.60;2.75;;;;;;;;;;5071924;28;20040;-85
2022/04/06 03:03:59;;;;;;;3.58;2.22;;;;;;;;;;5053824;28;20051;-85
2022/04/06 03:06:26;;;;;;;3.85;2.35;;;;;;;;;;5072465;28;20464;-86
2022/04/06 03:08:51;;;;;;;3.75;2.65;;;;;;;;;;5054121;28;20016;-85
2022/04/06 03:11:17;;;;;;;5.32;2.47;;;;;;;;;;5053836;28;20056;-85
2022/04/06 03:13:42;;;;;;;4.88;3.05;;;;;;;;;;5054171;28;20025;-86
2022/04/06 03:16:08;;;;;;;3.63;2.58;;;;;;;;;;5054159;28;20025;-84
2022/04/06 03:18:34;;;;;;;3.47;2.35;;;;;;;;;;5053575;28;20033;-83
2022/04/06 03:20:59;;;;;;;5.38;2.45;;;;;;;;;;5071790;28;20024;-87
2022/04/06 03:23:25;;;;;;;3.78;2.40;;;;;;;;;;5071924;28;20059;-86
2022/04/06 03:25:50;;;;;;;2.50;2.20;;;;;;;;;;5053987;28;20048;-86
2022/04/06 03:28:16;;;;;;;5.88;2.53;;;;;;;;;;5054183;28;20025;-85
2022/04/06 03:30:42;;;;;;;4.10;2.10;;;;;;;;;;5053801;28;20028;-85
2022/04/06 03:33:09;;;;;;;4.10;2.60;;;;;;;;;;5053817;28;20044;-85
2022/04/06 03:35:35;;;;;;;6.07;2.83;;;;;;;;;;5054012;28;20051;-86
2022/04/06 03:38:01;;;;;;;4.53;2.85;;;;;;;;;;5053611;28;20020;-85
2022/04/06 03:40:28;;;;;;;9.52;3.22;;;;;;;;;;5071814;28;20070;-84
2022/04/06 03:42:54;;;;;;;5.07;3.15;;;;;;;;;;5054233;28;20029;-85
2022/04/06 03:45:20;;;;;;;4.65;2.83;;;;;;;;;;5053546;28;20078;-86
2022/04/06 03:47:45;;;;;;;4.82;2.40;;;;;;;;;;5071791;28;20044;-85
2022/04/06 03:50:11;;;;;;;5.43;2.60;;;;;;;;;;5071853;28;20016;-84
2022/04/06 03:52:37;;;;;;;3.95;2.60;;;;;;;;;;5053854;28;20028;-86
2022/04/06 03:55:03;;;;;;;6.38;3.28;;;;;;;;;;5071689;28;20392;-83
2022/04/06 03:57:29;;;;;;;4.43;2.53;;;;;;;;;;5072180;28;20481;-85
2022/04/06 03:59:55;;;;;;;4.35;2.85;;;;;;;;;;5053930;28;20207;-84
2022/04/06 04:02:20;;;;;;;4.85;3.33;;;;;;;;;;5074313;28;20115;-84
2022/04/06 04:04:45;;;;;;;5.18;3.15;;;;;;;;;;5057642;28;20020;-86
2022/04/06 04:07:11;;;;;;;6.13;3.03;;;;;;;;;;5058053;28;20025;-83
2022/04/06 04:09:37;;;;;;;4.75;2.92;;;;;;;;;;5075179;28;20033;-87
2022/04/06 04:12:06;;;;;;;4.70;2.33;;;;;;;;;;5075737;28;20033;-86
2022/04/06 04:14:34;;;;;;;10.05;5.20;;;;;;;;;;5057581;28;20033;-83
2022/04/06 04:17:01;;;;;;;9.45;4.30;;;;;;;;;;5070958;28;20036;-85
2022/04/06 04:19:27;;;;;;;8.18;4.80;;;;;;;;;;5057449;28;20032;-84
2022/04/06 04:21:53;;;;;;;5.43;3.38;;;;;;;;;;5057892;28;20024;-86
2022/04/06 04:24:19;;;;;;;3.95;2.85;;;;;;;;;;5057636;28;20507;-86
2022/04/06 04:26:44;;;;;;;3.58;2.80;;;;;;;;;;5057522;28;20048;-87
2022/04/06 04:29:10;;;;;;;5.38;3.05;;;;;;;;;;5057423;28;20020;-86
2022/04/06 04:31:36;;;;;;;6.05;2.70;;;;;;;;;;5056941;28;20115;-86
2022/04/06 04:34:02;;;;;;;5.28;3.20;;;;;;;;;;5057080;28;20052;-85
2022/04/06 04:36:28;;;;;;;4.70;3.10;;;;;;;;;;5075257;28;20082;-83
2022/04/06 04:38:55;;;;;;;5.15;2.75;;;;;;;;;;5074496;28;20035;-85
2022/04/06 04:41:20;;;;;;;5.13;2.58;;;;;;;;;;5074911;28;20056;-86
2022/04/06 04:43:46;;;;;;;3.42;2.53;;;;;;;;;;5074920;28;20461;-88
2022/04/06 04:46:11;;;;;;;4.78;2.85;;;;;;;;;;5077315;28;20035;-85
2022/04/06 04:48:37;;;;;;;6.00;4.40;;;;;;;;;;5056288;28;20052;-86
2022/04/06 04:51:03;;;;;;;5.15;3.85;;;;;;;;;;5056471;28;20055;-86
2022/04/06 04:53:30;;;;;;;7.00;4.30;;;;;;;;;;5074986;28;20489;-87
2022/04/06 04:55:57;;;;;;;9.05;4.32;;;;;;;;;;5074859;28;20023;-87
2022/04/06 04:58:22;;;;;;;5.30;3.55;;;;;;;;;;5075026;28;20078;-85
2022/04/06 05:00:48;;;;;;;6.72;4.50;;;;;;;;;;5056300;28;20051;-86
2022/04/06 05:03:13;;;;;;;9.05;4.45;;;;;;;;;;5054809;28;20032;-84
2022/04/06 05:05:42;;;;;;;7.88;5.05;;;;;;;;;;5056173;28;20028;-85
2022/04/06 05:08:07;;;;;;;6.70;4.38;;;;;;;;;;5074324;28;20028;-85
2022/04/06 05:10:33;;;;;;;7.47;5.03;;;;;;;;;;5074067;28;20045;-87
2022/04/06 05:12:58;;;;;;;8.85;5.80;;;;;;;;;;5056170;28;20503;-85
2022/04/06 05:15:24;;;;;;;9.77;6.25;;;;;;;;;;5074606;28;20028;-87
2022/04/06 05:17:49;;;;;;;11.82;7.28;;;;;;;;;;5056281;28;20502;-85
2022/04/06 05:20:15;;;;;;;11.85;7.45;;;;;;;;;;5055633;28;20032;-87
2022/04/06 05:22:40;;;;;;;16.10;7.18;;;;;;;;;;5074354;28;20103;-85
2022/04/06 05:25:10;;;;;;;18.98;8.98;;;;;;;;;;5056592;28;20393;-85
2022/04/06 05:27:45;;;;;;;14.38;7.47;;;;;;;;;;5056665;28;20115;-85
2022/04/06 05:30:16;;;;;;;10.25;6.25;;;;;;;;;;5056253;28;20512;-87
2022/04/06 05:32:50;;;;;;;13.63;6.78;;;;;;;;;;5072951;28;20377;-86
2022/04/06 05:35:15;;;;;;;15.23;7.30;;;;;;;;;;5055974;28;20034;-87
2022/04/06 05:37:42;;;;;;;15.27;6.90;;;;;;;;;;5056314;28;20020;-87
2022/04/06 05:40:10;;;;;;;11.15;6.57;;;;;;;;;;5055990;28;20012;-88
2022/04/06 05:42:35;;;;;;;10.63;6.18;;;;;;;;;;5056155;28;20025;-86
2022/04/06 05:45:02;;;;;;;12.57;6.68;;;;;;;;;;5055657;28;20107;-88
2022/04/06 05:47:29;;;;;;;9.75;6.45;;;;;;;;;;5056084;28;20461;-86
2022/04/06 05:49:54;;;;;;;16.23;5.72;;;;;;;;;;5055706;28;20472;-86
2022/04/06 05:52:20;;;;;;;14.35;6.32;;;;;;;;;;5073605;28;20123;-86
2022/04/06 05:54:46;;;;;;;9.45;5.90;;;;;;;;;;5056087;28;20559;-86
2022/04/06 05:57:11;;;;;;;12.32;6.60;;;;;;;;;;5073464;28;20024;-87
2022/04/06 05:59:37;;;;;;;15.88;6.53;;;;;;;;;;5073399;28;20029;-86
2022/04/06 06:02:04;;;;;;;14.95;6.82;;;;;;;;;;5074214;28;20024;-86
2022/04/06 06:04:29;;;;;;;14.05;7.00;;;;;;;;;;5055649;28;20028;-86
2022/04/06 06:06:55;;;;;;;15.88;6.65;;;;;;;;;;5055636;28;20127;-87
2022/04/06 06:09:20;;;;;;;13.57;7.95;;;;;;;;;;5073482;28;20024;-87
2022/04/06 06:11:46;;;;;;;12.35;7.55;;;;;;;;;;5055178;28;20048;-85
2022/04/06 06:14:11;;;;;;;11.93;6.78;;;;;;;;;;5055726;28;20031;-86
2022/04/06 06:16:37;;;;;;;14.23;6.65;;;;;;;;;;5055736;28;20396;-87
2022/04/06 06:19:02;;;;;;;12.98;6.93;;;;;;;;;;5055378;28;20035;-87
2022/04/06 06:21:31;;;;;;;13.98;7.07;;;;;;;;;;5073180;28;20036;-86
2022/04/06 06:24:02;;;;;;;13.52;6.93;;;;;;;;;;5054184;28;20078;-87
2022/04/06 06:26:28;;;;;;;12.85;7.32;;;;;;;;;;5055061;28;20122;-86
2022/04/06 06:28:53;;;;;;;11.50;7.50;;;;;;;;;;5073175;28;20028;-86
2022/04/06 06:31:19;;;;;;;13.38;7.72;;;;;;;;;;5054837;28;20039;-85
2022/04/06 06:33:44;;;;;;;12.70;7.18;;;;;;;;;;5054793;28;20031;-87
2022/04/06 06:36:09;;;;;;;11.35;6.30;;;;;;;;;;5072940;28;20063;-87
2022/04/06 06:38:35;;;;;;;14.07;6.80;;;;;;;;;;5072689;28;20024;-86
2022/04/06 06:41:01;;;;;;;17.42;6.88;;;;;;;;;;5071994;28;20427;-88
2022/04/06 06:43:27;;;;;;;14.13;8.23;;;;;;;;;;5049915;28;20150;-87
2022/04/06 06:45:52;;;;;;;15.38;7.50;;;;;;;;;;5054547;28;20037;-86
2022/04/06 06:48:18;;;;;;;16.80;10.25;;;;;;;;;;5054361;28;20090;-86
2022/04/06 06:50:51;;;;;;;20.35;10.45;;;;;;;;;;5067825;28;20024;-85
2022/04/06 06:53:16;;;;;;;20.00;12.50;;;;;;;;;;5046980;28;20487;-86
2022/04/06 06:55:42;;;;;;;27.77;15.48;;;;;;;;;;5052224;28;20029;-85
2022/04/06 06:58:07;;;;;;;17.42;8.80;;;;;;;;;;5072660;28;20496;-86
2022/04/06 07:00:33;;;;;;;12.18;6.63;;;;;;;;;;5054560;28;20098;-87
2022/04/06 07:02:58;;;;;;;15.60;8.85;;;;;;;;;;5053887;28;20028;-85
2022/04/06 07:05:24;;;;;;;16.83;8.07;;;;;;;;;;5056868;28;20024;-88
2022/04/06 07:07:55;;;;;;;22.90;11.70;;;;;;;;;;5071855;28;20365;-86
2022/04/06 07:10:22;;;;;;;20.25;8.60;;;;;;;;;;5071835;28;20455;-85
2022/04/06 07:12:49;;;;;;;18.50;9.65;;;;;;;;;;5056293;28;20816;-87
2022/04/06 07:15:14;;;;;;;12.25;8.05;;;;;;;;;;5053777;28;20032;-86
2022/04/06 07:17:40;;;;;;;25.52;8.73;;;;;;;;;;5054196;28;20040;-87
2022/04/06 07:20:06;;;;;;;23.13;11.50;;;;;;;;;;5053583;28;20035;-85
2022/04/06 07:22:32;;;;;;;17.38;11.82;;;;;;;;;;5071872;28;20040;-86
2022/04/06 07:24:58;;;;;;;22.63;13.20;;;;;;;;;;5072148;28;20024;-86
2022/04/06 07:27:35;;;;;;;17.02;9.38;;;;;;;;;;5071816;28;20036;-87
2022/04/06 07:30:00;;;;;;;18.13;9.55;;;;;;;;;;5050544;28;20031;-88
2022/04/06 07:32:26;;;;;;;14.45;9.23;;;;;;;;;;5054095;28;20115;-89
2022/04/06 07:34:51;;;;;;;16.98;9.13;;;;;;;;;;5071723;28;20025;-88
2022/04/06 07:37:17;;;;;;;17.15;10.98;;;;;;;;;;5072076;28;20044;-89
2022/04/06 07:39:43;;;;;;;15.38;8.65;;;;;;;;;;5054354;28;20054;-87
2022/04/06 07:42:08;;;;;;;16.40;9.95;;;;;;;;;;5052311;28;20024;-86
2022/04/06 07:44:34;;;;;;;15.65;9.13;;;;;;;;;;5071512;28;20507;-87
2022/04/06 07:47:00;;;;;;;27.30;16.00;;;;;;;;;;5071692;28;20097;-89
2022/04/06 07:49:26;;;;;;;15.23;8.32;;;;;;;;;;5071454;28;20166;-87
2022/04/06 07:51:52;;;;;;;17.13;10.55;;;;;;;;;;5071929;28;20073;-88
2022/04/06 07:54:17;;;;;;;14.07;7.88;;;;;;;;;;5053836;28;20115;-86
2022/04/06 07:56:43;;;;;;;23.30;10.82;;;;;;;;;;5053617;28;20115;-88
2022/04/06 07:59:08;;;;;;;16.27;8.65;;;;;;;;;;5054992;28;20086;-87
2022/04/06 08:01:34;;;;;;;26.75;15.18;;;;;;;;;;5053898;28;20033;-90
2022/04/06 08:04:00;;;;;;;24.83;13.55;;;;;;;;;;5053279;28;20037;-85
2022/04/06 08:06:25;;;;;;;16.80;8.68;;;;;;;;;;5053666;28;20052;-86
2022/04/06 08:08:53;;;;;;;10.63;6.72;;;;;;;;;;5072120;28;20054;-87
2022/04/06 08:11:19;;;;;;;12.38;6.72;;;;;;;;;;5069684;28;20070;-88
2022/04/06 08:13:44;;;;;;;10.57;6.68;;;;;;;;;;5053085;28;20043;-87
2022/04/06 08:16:10;;;;;;;9.77;7.10;;;;;;;;;;5071520;28;20016;-85
2022/04/06 08:18:36;;;;;;;9.65;6.20;;;;;;;;;;5053075;28;20036;-89
2022/04/06 08:21:05;;;;;;;8.93;5.85;;;;;;;;;;5052975;28;20396;-85
2022/04/06 08:23:31;;;;;;;11.03;5.63;;;;;;;;;;5052183;28;20380;-86
2022/04/06 08:25:56;;;;;;;11.93;5.72;;;;;;;;;;5053078;28;20032;-85
2022/04/06 08:28:22;;;;;;;11.27;5.55;;;;;;;;;;5053093;28;20051;-88
2022/04/06 08:30:50;;;;;;;12.38;5.68;;;;;;;;;;5071043;28;20447;-88
2022/04/06 08:33:16;;;;;;;10.82;5.32;;;;;;;;;;5070890;28;20103;-89
2022/04/06 08:35:42;;;;;;;9.68;5.90;;;;;;;;;;5071354;28;20441;-87
2022/04/06 08:38:14;;;;;;;11.63;5.43;;;;;;;;;;5052974;28;20020;-88
2022/04/06 08:40:42;;;;;;;15.20;5.75;;;;;;;;;;5051959;28;20025;-90
2022/04/06 08:43:09;;;;;;;10.15;5.30;;;;;;;;;;5052698;28;20029;-86
2022/04/06 08:45:37;;;;;;;7.43;4.40;;;;;;;;;;5070756;28;20029;-85
2022/04/06 08:48:07;;;;;;;10.15;4.80;;;;;;;;;;5069998;28;20066;-85
2022/04/06 08:50:35;;;;;;;7.57;4.53;;;;;;;;;;5057385;28;20028;-87
2022/04/06 08:53:03;;;;;;;8.63;4.35;;;;;;;;;;5056716;28;20020;-86
2022/04/06 08:55:29;;;;;;;8.48;4.63;;;;;;;;;;5056032;28;20772;-86
2022/04/06 08:57:59;;;;;;;5.20;3.72;;;;;;;;;;5055655;28;20468;-86
2022/04/06 09:00:26;;;;;;;7.78;3.95;;;;;;;;;;5074261;28;20025;-87
2022/04/06 09:02:51;;;;;;;6.80;4.10;;;;;;;;;;5074191;28;20032;-85
2022/04/06 09:05:21;;;;;;;6.40;3.78;;;;;;;;;;5074413;28;20059;-87
2022/04/06 09:07:53;;;;;;;6.60;3.88;;;;;;;;;;5074240;28;20498;-88
2022/04/06 09:10:33;;;;;;;5.70;3.72;;;;;;;;;;5071297;28;20050;-85
2022/04/06 09:13:08;;;;;;;;;;;;;;;;;;5072086;28;20052;-89
2022/04/06 09:15:33;;;;;;;6.40;3.70;;;;;;;;;;5073088;28;19919;-85
2022/04/06 09:18:01;;;;;;;5.13;3.38;;;;;;;;;;5056254;28;20419;-90
2022/04/06 09:20:29;;;;;;;7.80;3.30;;;;;;;;;;5074035;28;20078;-86
2022/04/06 09:22:54;;;;;;;5.65;3.55;;;;;;;;;;5074007;28;20089;-86
2022/04/06 09:25:20;;;;;;;6.20;3.42;;;;;;;;;;5055950;28;20029;-89
2022/04/06 09:27:46;;;;;;;4.18;3.05;;;;;;;;;;5058876;28;20024;-87
2022/04/06 09:30:12;;;;;;;7.88;3.50;;;;;;;;;;5055606;28;20062;-88
2022/04/06 09:32:41;;;;;;;9.07;3.97;;;;;;;;;;5055953;28;20484;-85
2022/04/06 09:35:25;;;;;;;6.78;3.70;;;;;;;;;;5055747;28;20063;-86
2022/04/06 09:38:08;;;;;;;5.07;3.15;;;;;;;;;;5089653;28;20103;-87
2022/04/06 09:40:34;;;;;;;4.85;2.75;;;;;;;;;;5055784;28;20032;-86
2022/04/06 09:42:59;;;;;;;5.63;2.90;;;;;;;;;;5073986;28;20021;-88
2022/04/06 09:48:13;;;;;;;4.53;2.30;;;;;;;;;;5068791;28;20036;-87
2022/04/06 09:50:38;;;;;;;6.50;2.17;;;;;;;;;;5055881;28;20392;-86
2022/04/06 09:53:06;;;;;;;4.15;2.35;;;;;;;;;;5055616;28;20078;-87
2022/04/06 09:55:32;;;;;;;6.57;3.00;;;;;;;;;;5056231;28;20108;-86
2022/04/06 09:57:59;;;;;;;4.68;3.13;;;;;;;;;;5072943;28;20055;-85
2022/04/06 10:00:28;;;;;;;4.05;2.78;;;;;;;;;;5072306;28;20025;-88
2022/04/06 10:03:07;;;;;;;4.82;3.42;;;;;;;;;;5073415;28;20024;-86
2022/04/06 10:05:34;;;;;;;6.28;3.58;;;;;;;;;;5062794;28;20024;-87
2022/04/06 10:08:06;;;;;;;8.85;3.28;;;;;;;;;;5071162;28;20107;-87
2022/04/06 10:10:33;;;;;;;4.75;3.17;;;;;;;;;;5054597;28;20036;-86
2022/04/06 10:13:01;;;;;;;4.45;2.78;;;;;;;;;;5073180;28;20025;-87
2022/04/06 10:15:27;;;;;;;3.97;2.55;;;;;;;;;;5054579;28;20078;-87
2022/04/06 10:17:53;;;;;;;4.05;3.00;;;;;;;;;;5055094;28;20032;-88
2022/04/06 10:20:26;;;;;;;6.00;3.05;;;;;;;;;;5072827;28;20495;-88
2022/04/06 10:23:00;;;;;;;4.05;2.63;;;;;;;;;;5054811;28;20028;-86
2022/04/06 10:25:45;;;;;;;5.38;3.08;;;;;;;;;;5072274;28;20028;-85
2022/04/06 10:28:12;;;;;;;6.55;2.70;;;;;;;;;;5070352;28;20523;-86
2022/04/06 10:30:38;;;;;;;4.72;2.97;;;;;;;;;;5069911;28;20063;-85
2022/04/06 10:33:21;;;;;;;4.80;2.78;;;;;;;;;;5055109;28;20060;-88
2022/04/06 10:35:47;;;;;;;4.38;2.70;;;;;;;;;;5054483;28;20059;-88
2022/04/06 10:38:16;;;;;;;5.07;2.40;;;;;;;;;;5072533;28;20056;-88
2022/04/06 10:40:45;;;;;;;5.60;3.00;;;;;;;;;;5072323;28;20433;-88
2022/04/06 10:43:40;;;;;;;4.05;2.60;;;;;;;;;;5070888;28;20024;-89
2022/04/06 10:46:10;;;;;;;6.57;3.30;;;;;;;;;;5070403;28;20035;-88
2022/04/06 10:48:56;;;;;;;7.25;3.22;;;;;;;;;;5052833;28;20488;-86
2022/04/06 10:51:35;;;;;;;4.28;2.78;;;;;;;;;;5070987;28;20025;-86
2022/04/06 10:54:12;;;;;;;7.18;3.40;;;;;;;;;;5072783;28;20031;-88
2022/04/06 10:56:50;;;;;;;6.55;2.67;;;;;;;;;;5071178;28;20028;-86
2022/04/06 10:59:23;;;;;;;7.82;2.90;;;;;;;;;;5053644;28;20036;-86
2022/04/06 11:02:09;;;;;;;4.65;2.53;;;;;;;;;;5068134;28;20024;-87
2022/04/06 11:04:41;;;;;;;5.10;3.00;;;;;;;;;;5054011;28;20032;-87
2022/04/06 11:07:08;;;;;;;5.20;2.60;;;;;;;;;;5054167;28;20039;-86
2022/04/06 11:12:26;;;;;;;6.38;3.33;;;;;;;;;;5072236;28;20085;-86
2022/04/06 11:15:01;;;;;;;4.57;2.60;;;;;;;;;;5053477;28;20153;-88
2022/04/06 11:17:32;;;;;;;4.97;2.60;;;;;;;;;;5054094;28;20029;-87
2022/04/06 11:19:59;;;;;;;5.40;3.30;;;;;;;;;;5054425;28;20028;-88
2022/04/06 11:22:25;;;;;;;5.25;3.17;;;;;;;;;;5054380;28;20032;-85
2022/04/06 11:24:51;;;;;;;5.53;2.78;;;;;;;;;;5054263;28;20031;-88
2022/04/06 11:27:32;;;;;;;5.05;2.85;;;;;;;;;;5072246;28;20040;-87
2022/04/06 11:30:12;;;;;;;4.45;2.85;;;;;;;;;;5054001;28;20066;-86
2022/04/06 11:32:43;;;;;;;3.40;2.35;;;;;;;;;;5054205;28;20089;-86
2022/04/06 11:35:10;;;;;;;5.07;2.65;;;;;;;;;;5070422;28;20090;-86
2022/04/06 11:37:46;;;;;;;4.20;2.72;;;;;;;;;;5054114;28;20491;-87
2022/04/06 11:40:12;;;;;;;6.57;2.63;;;;;;;;;;5053725;28;20019;-86
2022/04/06 11:42:38;;;;;;;4.35;2.60;;;;;;;;;;5071898;28;20028;-87
2022/04/06 11:45:05;;;;;;;3.97;2.47;;;;;;;;;;5053885;28;20025;-86
2022/04/06 11:47:36;;;;;;;5.03;2.55;;;;;;;;;;5054199;28;20086;-85
2022/04/06 11:50:05;;;;;;;5.25;2.83;;;;;;;;;;5053936;28;20020;-88
2022/04/06 11:52:32;;;;;;;3.78;2.60;;;;;;;;;;5051196;28;20025;-86
2022/04/06 11:54:57;;;;;;;3.22;2.30;;;;;;;;;;5072281;28;20059;-89
2022/04/06 11:57:40;;;;;;;4.78;2.60;;;;;;;;;;5071677;28;20038;-85
2022/04/06 12:00:08;;;;;;;5.90;2.20;;;;;;;;;;5053823;28;20106;-85
2022/04/06 12:02:55;;;;;;;4.93;2.78;;;;;;;;;;5071604;28;20044;-86
2022/04/06 12:05:22;;;;;;;6.22;2.72;;;;;;;;;;5054161;28;20036;-88
2022/04/06 12:07:48;;;;;;;5.35;2.45;;;;;;;;;;5053804;28;20500;-87
2022/04/06 12:10:14;;;;;;;5.50;2.50;;;;;;;;;;5054023;28;20040;-87
2022/04/06 12:12:41;;;;;;;6.75;2.65;;;;;;;;;;5071315;28;20029;-85
2022/04/06 12:15:08;;;;;;;4.72;2.53;;;;;;;;;;5045274;28;20039;-87
2022/04/06 12:17:35;;;;;;;4.38;2.65;;;;;;;;;;5071117;28;20380;-85
2022/04/06 12:20:19;;;;;;;4.35;2.22;;;;;;;;;;5071128;28;20025;-88
2022/04/06 12:22:45;;;;;;;4.13;2.30;;;;;;;;;;5072977;28;20099;-87
2022/04/06 12:25:32;;;;;;;6.47;2.38;;;;;;;;;;5057221;28;20059;-87
2022/04/06 12:28:23;;;;;;;3.30;2.30;;;;;;;;;;5052186;28;20031;-87
2022/04/06 12:31:06;;;;;;;3.88;2.45;;;;;;;;;;5074882;28;20060;-87
2022/04/06 12:33:36;;;;;;;4.43;2.50;;;;;;;;;;5074504;28;20026;-89
2022/04/06 12:36:30;;;;;;;5.30;2.15;;;;;;;;;;5057336;28;20035;-87
2022/04/06 12:39:15;;;;;;;4.90;2.45;;;;;;;;;;5071924;28;20503;-87
2022/04/06 12:41:56;;;;;;;4.97;2.78;;;;;;;;;;5074235;28;20021;-89
2022/04/06 12:44:22;;;;;;;4.78;2.60;;;;;;;;;;5072597;28;20391;-87
2022/04/06 12:46:48;;;;;;;4.75;2.45;;;;;;;;;;5056808;28;20062;-87
2022/04/06 12:49:22;;;;;;;6.75;2.50;;;;;;;;;;5074921;28;20108;-87
2022/04/06 12:51:48;;;;;;;3.83;2.60;;;;;;;;;;5074474;28;20366;-85
2022/04/06 12:54:14;;;;;;;4.10;2.65;;;;;;;;;;5054298;28;20016;-87
2022/04/06 12:57:10;;;;;;;3.53;2.88;;;;;;;;;;5056630;28;20031;-86
2022/04/06 12:59:57;;;;;;;4.47;2.30;;;;;;;;;;5074904;28;20392;-88
2022/04/06 13:02:29;;;;;;;3.75;2.65;;;;;;;;;;5072064;28;20518;-88
2022/04/06 13:05:07;;;;;;;3.95;2.50;;;;;;;;;;5074630;28;20024;-85
2022/04/06 13:07:34;;;;;;;4.75;2.45;;;;;;;;;;5074516;28;20024;-86
2022/04/06 13:10:01;;;;;;;6.43;2.38;;;;;;;;;;5048179;28;20045;-88
2022/04/06 13:12:28;;;;;;;4.05;2.40;;;;;;;;;;5056314;28;20032;-86
2022/04/06 13:14:56;;;;;;;3.78;2.38;;;;;;;;;;5056481;28;20024;-88
2022/04/06 13:17:22;;;;;;;4.03;2.40;;;;;;;;;;5056408;28;20090;-88
2022/04/06 13:19:48;;;;;;;3.83;2.20;;;;;;;;;;5056446;28;20058;-86
2022/04/06 13:22:14;;;;;;;3.85;2.08;;;;;;;;;;5073833;28;20369;-86
2022/04/06 13:24:41;;;;;;;2.72;2.05;;;;;;;;;;5056709;28;20024;-88
2022/04/06 13:27:07;;;;;;;3.65;2.22;;;;;;;;;;5055990;28;20021;-87
2022/04/06 13:29:33;;;;;;;3.75;2.20;;;;;;;;;;5049999;28;20472;-88
2022/04/06 13:31:59;;;;;;;4.75;2.97;;;;;;;;;;5073722;28;20031;-87
2022/04/06 13:34:25;;;;;;;4.28;2.33;;;;;;;;;;5073697;28;20017;-87
2022/04/06 13:36:51;;;;;;;4.18;2.05;;;;;;;;;;5073815;28;20060;-89
2022/04/06 13:39:17;;;;;;;6.45;2.35;;;;;;;;;;5056384;28;20028;-89
2022/04/06 13:41:43;;;;;;;5.10;2.80;;;;;;;;;;5055886;28;20020;-87
2022/04/06 13:44:09;;;;;;;3.70;2.30;;;;;;;;;;5070538;28;20116;-89
2022/04/06 13:46:35;;;;;;;3.67;2.22;;;;;;;;;;5073891;28;20048;-86
2022/04/06 13:49:00;;;;;;;4.25;2.53;;;;;;;;;;5055895;28;20071;-88
2022/04/06 13:51:26;;;;;;;5.32;2.40;;;;;;;;;;5073615;28;20021;-85
2022/04/06 13:53:55;;;;;;;7.28;2.58;;;;;;;;;;5074609;28;20467;-84
2022/04/06 13:56:20;;;;;;;4.78;2.20;;;;;;;;;;5073908;28;20024;-84
2022/04/06 13:58:46;;;;;;;3.67;2.38;;;;;;;;;;5073237;28;20040;-84
2022/04/06 14:01:12;;;;;;;5.03;2.42;;;;;;;;;;5074511;28;20107;-83
2022/04/06 14:03:41;;;;;;;5.10;2.10;;;;;;;;;;5054907;28;20032;-83
2022/04/06 14:06:09;;;;;;;3.60;2.30;;;;;;;;;;5073956;28;20029;-83
2022/04/06 14:08:35;;;;;;;3.10;2.10;;;;;;;;;;5070633;28;20028;-83
2022/04/06 14:11:01;;;;;;;3.53;2.05;;;;;;;;;;5072084;28;20289;-83
2022/04/06 14:13:27;;;;;;;2.90;2.05;;;;;;;;;;5072718;28;20020;-83
2022/04/06 14:15:56;;;;;;;5.68;2.30;;;;;;;;;;5073085;28;20040;-82
2022/04/06 14:18:21;;;;;;;6.20;2.38;;;;;;;;;;5069603;28;20107;-83
2022/04/06 14:20:48;;;;;;;4.53;2.10;;;;;;;;;;5072840;28;20170;-82
2022/04/06 14:23:14;;;;;;;6.22;2.65;;;;;;;;;;5053959;28;20020;-82
2022/04/06 14:25:41;;;;;;;3.55;1.85;;;;;;;;;;5072116;28;20111;-82
2022/04/06 14:28:07;;;;;;;6.55;2.47;;;;;;;;;;5073041;28;20028;-81
2022/04/06 14:30:33;;;;;;;3.35;2.35;;;;;;;;;;5071371;28;20028;-81
2022/04/06 14:32:59;;;;;;;4.05;2.00;;;;;;;;;;5071962;28;20025;-82
2022/04/06 14:35:25;;;;;;;2.70;2.13;;;;;;;;;;5072897;28;20039;-82
2022/04/06 14:37:51;;;;;;;8.32;2.63;;;;;;;;;;5071788;28;20020;-83
2022/04/06 14:40:16;;;;;;;5.47;2.50;;;;;;;;;;5071832;28;20040;-82
2022/04/06 14:42:43;;;;;;;4.25;2.55;;;;;;;;;;5071199;28;20051;-83
2022/04/06 14:45:09;;;;;;;6.22;3.58;;;;;;;;;;5071897;28;20097;-82
2022/04/06 14:47:35;;;;;;;5.82;2.70;;;;;;;;;;5072339;28;20425;-82
2022/04/06 14:50:01;;;;;;;5.28;2.35;;;;;;;;;;5072391;28;20123;-82
2022/04/06 14:52:27;;;;;;;3.83;2.15;;;;;;;;;;5072215;28;20042;-83
2022/04/06 14:54:52;;;;;;;3.85;2.13;;;;;;;;;;5054544;28;20032;-83